Time;durP1;ratioP1;P1;durP2;ratioP2;P2;SDS_P1;SDS_P2;PMS_P1;PMS_P2;Temp;Humidity;BMP_temperature;BMP_pressure;BME280_temperature;BME280_humidity;BME280_pressure;Samples;Min_cycle;Max_cycle;Signal;HPM_P1;HPM_P2
2022/07/04 00:00:37;;;;;;;3.80;1.48;;;21.00;98.90;;;;;;5055862;28;20030;-70
2022/07/04 00:03:02;;;;;;;2.25;0.82;;;21.00;98.90;;;;;;5064545;28;20040;-69
2022/07/04 00:05:28;;;;;;;5.63;1.33;;;21.00;99.10;;;;;;5075877;28;20127;-67
2022/07/04 00:07:54;;;;;;;1.35;0.77;;;21.10;99.60;;;;;;5075882;28;20044;-67
2022/07/04 00:10:20;;;;;;;3.05;0.98;;;21.10;99.90;;;;;;5075721;28;20047;-69
2022/07/04 00:12:46;;;;;;;10.80;1.15;;;21.00;99.70;;;;;;5075558;28;20040;-68
2022/07/04 00:15:12;;;;;;;5.32;1.10;;;21.00;99.60;;;;;;5075354;28;20139;-68
2022/07/04 00:17:38;;;;;;;4.95;0.90;;;20.80;99.90;;;;;;5075561;28;20037;-68
2022/07/04 00:20:06;;;;;;;5.00;1.10;;;20.70;99.90;;;;;;5075539;28;20039;-68
2022/07/04 00:22:32;;;;;;;1.77;0.80;;;20.70;99.90;;;;;;5075453;28;20103;-70
2022/07/04 00:24:58;;;;;;;2.97;0.73;;;20.80;99.80;;;;;;5074122;28;20090;-68
2022/07/04 00:27:23;;;;;;;2.03;0.70;;;20.60;99.90;;;;;;5075074;28;20391;-70
2022/07/04 00:29:49;;;;;;;3.35;1.30;;;20.50;99.90;;;;;;5075083;28;20426;-70
2022/07/04 00:32:15;;;;;;;6.93;1.13;;;20.30;99.90;;;;;;5075050;28;20028;-68
2022/07/04 00:34:41;;;;;;;7.90;1.23;;;20.40;99.90;;;;;;5075125;28;20430;-70
2022/07/04 00:37:07;;;;;;;2.97;1.02;;;20.30;99.90;;;;;;5075200;28;20051;-69
2022/07/04 00:39:33;;;;;;;2.92;1.27;;;20.50;99.90;;;;;;5074910;28;20048;-69
2022/07/04 00:41:59;;;;;;;1.83;0.85;;;20.60;99.90;;;;;;5074968;28;20040;-69
2022/07/04 00:44:24;;;;;;;2.00;0.90;;;20.50;99.90;;;;;;5075231;28;20063;-69
2022/07/04 00:46:50;;;;;;;2.70;0.90;;;20.50;99.90;;;;;;5074970;28;20040;-68
2022/07/04 00:49:17;;;;;;;1.95;0.80;;;20.50;99.90;;;;;;5074871;28;20028;-68
2022/07/04 00:51:45;;;;;;;1.33;0.80;;;20.50;99.90;;;;;;5074888;28;20040;-68
2022/07/04 00:54:13;;;;;;;5.85;0.90;;;20.40;99.90;;;;;;5074663;28;20040;-69
2022/07/04 00:56:42;;;;;;;5.40;1.20;;;20.30;99.90;;;;;;5074676;28;20037;-69
2022/07/04 00:59:08;;;;;;;4.85;0.80;;;20.50;99.90;;;;;;5074680;28;20064;-70
2022/07/04 01:01:35;;;;;;;3.75;0.80;;;20.40;99.90;;;;;;5074918;28;20044;-68
2022/07/04 01:04:05;;;;;;;4.03;1.10;;;20.40;99.90;;;;;;5074554;28;20045;-67
2022/07/04 01:06:32;;;;;;;4.32;1.02;;;20.10;99.90;;;;;;5074546;28;20098;-67
2022/07/04 01:08:59;;;;;;;5.70;1.00;;;20.10;99.90;;;;;;5074560;28;20040;-68
2022/07/04 01:11:25;;;;;;;3.75;1.05;;;20.10;99.90;;;;;;5074574;28;20032;-68
2022/07/04 01:13:53;;;;;;;2.05;0.80;;;19.90;99.90;;;;;;5074705;28;20051;-67
2022/07/04 01:16:19;;;;;;;3.78;1.00;;;20.00;99.90;;;;;;5074472;28;20495;-67
2022/07/04 01:18:44;;;;;;;1.25;0.70;;;20.10;99.90;;;;;;5074188;28;20048;-65
2022/07/04 01:21:10;;;;;;;3.25;0.82;;;20.00;99.90;;;;;;5074298;28;20040;-67
2022/07/04 01:23:38;;;;;;;1.95;0.93;;;19.80;99.90;;;;;;5074270;28;20056;-66
2022/07/04 01:26:04;;;;;;;1.98;0.80;;;19.80;99.90;;;;;;5074254;28;20158;-67
2022/07/04 01:28:30;;;;;;;2.53;0.80;;;19.80;99.90;;;;;;5074351;28;20127;-66
2022/07/04 01:30:55;;;;;;;3.55;0.90;;;19.80;99.90;;;;;;5074200;28;20048;-68
2022/07/04 01:33:21;;;;;;;2.65;0.80;;;19.80;99.90;;;;;;5074300;28;20043;-67
2022/07/04 01:35:47;;;;;;;2.15;0.77;;;19.80;99.90;;;;;;5074207;28;20488;-67
2022/07/04 01:38:13;;;;;;;5.15;1.02;;;19.50;99.90;;;;;;5074050;28;20081;-67
2022/07/04 01:40:39;;;;;;;7.07;1.45;;;19.60;99.90;;;;;;5074253;28;20048;-68
2022/07/04 01:43:05;;;;;;;3.05;1.10;;;19.30;99.90;;;;;;5073557;28;20041;-69
2022/07/04 01:45:37;;;;;;;8.82;1.08;;;19.50;99.90;;;;;;5073990;28;20083;-67
2022/07/04 01:48:07;;;;;;;2.38;0.88;;;19.50;99.90;;;;;;5073929;28;20594;-67
2022/07/04 01:50:34;;;;;;;3.60;1.00;;;19.40;99.90;;;;;;5073956;28;20123;-68
2022/07/04 01:53:00;;;;;;;3.55;0.95;;;19.40;99.90;;;;;;5073978;28;20033;-67
2022/07/04 01:55:26;;;;;;;2.00;0.80;;;19.50;99.90;;;;;;5074036;28;20503;-67
2022/07/04 01:57:52;;;;;;;2.40;0.95;;;19.50;99.90;;;;;;5073765;28;20044;-67
2022/07/04 02:03:02;;;;;;;4.78;0.90;;;19.50;99.90;;;;;;5073762;28;20039;-67
2022/07/04 02:05:27;;;;;;;4.65;0.80;;;19.50;99.90;;;;;;5073608;28;20044;-69
2022/07/04 02:07:53;;;;;;;2.17;1.00;;;19.50;99.90;;;;;;5073762;28;20040;-68
2022/07/04 02:10:19;;;;;;;6.70;1.02;;;19.50;99.90;;;;;;5073558;28;20036;-67
2022/07/04 02:13:01;;;;;;;1.52;0.80;;;;;;;;;;5073773;28;20556;-68
2022/07/04 02:15:35;;;;;;;2.83;0.88;;;19.20;99.90;;;;;;5073736;28;20052;-67
2022/07/04 02:18:02;;;;;;;5.53;0.88;;;19.10;99.90;;;;;;5073446;28;20047;-67
2022/07/04 02:20:28;;;;;;;1.90;0.80;;;19.00;99.90;;;;;;5073586;28;20048;-67
2022/07/04 02:22:54;;;;;;;5.82;0.88;;;19.00;99.90;;;;;;5073641;28;20549;-67
2022/07/04 02:25:20;;;;;;;1.35;0.60;;;19.10;99.90;;;;;;5073601;28;20041;-68
2022/07/04 02:27:46;;;;;;;4.95;0.73;;;19.30;99.90;;;;;;5073518;28;20364;-67
2022/07/04 02:30:12;;;;;;;2.65;0.80;;;19.10;99.90;;;;;;5073254;28;20052;-68
2022/07/04 02:32:39;;;;;;;3.45;1.10;;;19.10;99.90;;;;;;5073627;28;20507;-67
2022/07/04 02:35:05;;;;;;;4.90;0.95;;;19.20;99.90;;;;;;5073617;28;20094;-67
2022/07/04 02:37:31;;;;;;;2.50;0.90;;;19.00;99.90;;;;;;5073413;28;20060;-68
2022/07/04 02:39:57;;;;;;;2.03;0.63;;;19.00;99.90;;;;;;5073640;28;20451;-67
2022/07/04 02:42:23;;;;;;;5.00;0.75;;;19.00;99.90;;;;;;5073596;28;20116;-67
2022/07/04 02:44:49;;;;;;;3.45;0.70;;;19.00;99.90;;;;;;5073436;28;20376;-67
2022/07/04 02:47:15;;;;;;;4.65;1.10;;;19.00;99.90;;;;;;5073379;28;20043;-66
2022/07/04 02:49:41;;;;;;;5.00;1.00;;;18.90;99.90;;;;;;5073223;28;20521;-68
2022/07/04 02:52:07;;;;;;;2.75;1.08;;;19.00;99.90;;;;;;5073338;28;20036;-67
2022/07/04 02:54:33;;;;;;;1.63;0.80;;;18.90;99.90;;;;;;5073546;28;20028;-68
2022/07/04 02:56:59;;;;;;;2.25;0.90;;;18.90;99.90;;;;;;5076268;28;20043;-68
2022/07/04 02:59:25;;;;;;;1.27;0.80;;;18.80;99.90;;;;;;5076925;28;20052;-67
2022/07/04 03:01:51;;;;;;;2.65;0.98;;;18.90;99.90;;;;;;5077065;28;20037;-67
2022/07/04 03:04:16;;;;;;;3.95;0.90;;;18.90;99.90;;;;;;5077000;28;20193;-68
2022/07/04 03:06:42;;;;;;;1.65;0.80;;;18.90;99.90;;;;;;5077087;28;20581;-68
2022/07/04 03:09:09;;;;;;;3.13;0.70;;;19.00;99.90;;;;;;5076968;28;20399;-68
2022/07/04 03:11:35;;;;;;;1.48;0.68;;;18.80;99.90;;;;;;5076879;28;20082;-69
2022/07/04 03:14:01;;;;;;;1.90;0.70;;;18.70;99.90;;;;;;5076694;28;20043;-69
2022/07/04 03:16:27;;;;;;;3.03;0.63;;;18.60;99.90;;;;;;5077119;28;20438;-69
2022/07/04 03:18:52;;;;;;;2.75;0.85;;;18.80;99.90;;;;;;5076628;28;20067;-69
2022/07/04 03:21:18;;;;;;;5.25;0.80;;;18.60;99.90;;;;;;5076796;28;20086;-69
2022/07/04 03:23:57;;;;;;;3.20;0.90;;;18.50;99.90;;;;;;5076766;28;20121;-69
2022/07/04 03:26:29;;;;;;;2.22;0.88;;;18.50;99.90;;;;;;5076649;28;20044;-69
2022/07/04 03:28:55;;;;;;;3.17;1.08;;;18.30;99.90;;;;;;5076296;28;20483;-69
2022/07/04 03:31:21;;;;;;;4.78;0.88;;;18.40;99.90;;;;;;5076259;28;20507;-69
2022/07/04 03:33:47;;;;;;;1.52;0.63;;;18.60;99.90;;;;;;5076549;28;20063;-68
2022/07/04 03:36:13;;;;;;;3.03;0.85;;;18.60;99.90;;;;;;5076511;28;20036;-68
2022/07/04 03:38:38;;;;;;;3.25;0.80;;;18.70;99.90;;;;;;5076416;28;20403;-68
2022/07/04 03:41:04;;;;;;;1.50;0.90;;;18.80;99.90;;;;;;5076335;28;20045;-68
2022/07/04 03:43:30;;;;;;;2.72;1.10;;;18.80;99.90;;;;;;5076318;28;20040;-67
2022/07/04 03:45:56;;;;;;;1.02;0.60;;;18.80;99.90;;;;;;5076388;28;20037;-67
2022/07/04 03:48:21;;;;;;;1.88;1.00;;;18.80;99.90;;;;;;5076315;28;20043;-67
2022/07/04 03:50:47;;;;;;;2.35;0.90;;;18.90;99.90;;;;;;5076132;28;20119;-67
2022/07/04 03:53:14;;;;;;;4.43;0.93;;;18.80;99.90;;;;;;5076169;28;20043;-67
2022/07/04 03:55:40;;;;;;;3.90;1.10;;;18.70;99.90;;;;;;5075884;28;20036;-67
2022/07/04 03:58:06;;;;;;;2.25;0.98;;;18.50;99.90;;;;;;5075930;28;20058;-67
2022/07/04 04:00:32;;;;;;;3.78;1.15;;;18.30;99.90;;;;;;5075923;28;20032;-67
2022/07/04 04:02:58;;;;;;;2.22;1.08;;;18.40;99.90;;;;;;5075890;28;20043;-67
2022/07/04 04:05:28;;;;;;;4.07;1.13;;;18.60;99.90;;;;;;5075769;28;20032;-67
2022/07/04 04:07:58;;;;;;;4.00;1.25;;;18.50;99.90;;;;;;5074884;28;20487;-67
2022/07/04 04:10:26;;;;;;;3.70;1.13;;;18.60;99.90;;;;;;5064969;28;20083;-68
2022/07/04 04:12:52;;;;;;;5.03;1.15;;;18.50;99.90;;;;;;5055606;28;20374;-67
2022/07/04 04:15:18;;;;;;;2.13;0.80;;;18.50;99.90;;;;;;5055354;28;20063;-67
2022/07/04 04:17:44;;;;;;;3.15;0.88;;;18.50;99.90;;;;;;5055566;28;20032;-67
2022/07/04 04:20:09;;;;;;;1.92;0.80;;;18.50;99.90;;;;;;5055503;28;20072;-68
2022/07/04 04:22:36;;;;;;;2.78;1.08;;;18.50;99.90;;;;;;5055498;28;20064;-67
2022/07/04 04:25:01;;;;;;;2.92;0.82;;;18.30;99.90;;;;;;5055394;28;20473;-67
2022/07/04 04:27:27;;;;;;;2.42;0.95;;;18.20;99.90;;;;;;5055337;28;20123;-67
2022/07/04 04:29:53;;;;;;;5.00;1.05;;;18.30;99.90;;;;;;5055227;28;20052;-67
2022/07/04 04:32:19;;;;;;;3.67;1.00;;;18.50;99.90;;;;;;5055347;28;20037;-67
2022/07/04 04:34:44;;;;;;;2.95;1.30;;;18.50;99.90;;;;;;5055344;28;20041;-69
2022/07/04 04:37:10;;;;;;;1.70;0.75;;;18.40;99.90;;;;;;5055222;28;20484;-69
2022/07/04 04:39:36;;;;;;;3.53;0.98;;;18.30;99.90;;;;;;5054886;28;20075;-68
2022/07/04 04:42:02;;;;;;;5.28;0.95;;;18.40;99.90;;;;;;5055141;28;20495;-70
2022/07/04 04:44:28;;;;;;;2.10;0.82;;;18.10;99.90;;;;;;5055093;28;20133;-67
2022/07/04 04:46:54;;;;;;;4.93;1.20;;;18.20;99.90;;;;;;5055216;28;20464;-69
2022/07/04 04:49:19;;;;;;;6.57;1.63;;;18.00;99.90;;;;;;5054907;28;20522;-67
2022/07/04 04:51:45;;;;;;;6.50;1.00;;;17.90;99.90;;;;;;5055157;28;20041;-67
2022/07/04 04:54:11;;;;;;;7.47;1.13;;;17.90;99.90;;;;;;5054708;28;20036;-67
2022/07/04 04:56:37;;;;;;;4.32;0.95;;;17.90;99.90;;;;;;5054781;28;20025;-69
2022/07/04 04:59:03;;;;;;;2.28;0.73;;;17.90;99.90;;;;;;5054694;28;20110;-69
2022/07/04 05:01:28;;;;;;;2.38;0.88;;;17.80;99.90;;;;;;5054787;28;20033;-69
2022/07/04 05:03:54;;;;;;;2.67;0.68;;;17.90;99.90;;;;;;5054702;28;20049;-69
2022/07/04 05:06:20;;;;;;;2.92;0.90;;;18.00;99.90;;;;;;5054710;28;20037;-68
2022/07/04 05:08:46;;;;;;;3.13;0.88;;;17.90;99.90;;;;;;5054488;28;20136;-69
2022/07/04 05:11:12;;;;;;;2.55;0.90;;;17.90;99.90;;;;;;5054684;28;20403;-69
2022/07/04 05:13:37;;;;;;;3.22;1.20;;;18.00;99.90;;;;;;5054604;28;20041;-70
2022/07/04 05:16:04;;;;;;;2.08;0.98;;;18.00;99.90;;;;;;5054465;28;20040;-68
2022/07/04 05:18:29;;;;;;;4.00;0.90;;;18.00;99.90;;;;;;5053725;28;20052;-67
2022/07/04 05:20:55;;;;;;;4.05;0.73;;;18.10;99.90;;;;;;5054417;28;20033;-68
2022/07/04 05:23:21;;;;;;;2.95;1.05;;;18.30;99.90;;;;;;5054049;28;20472;-68
2022/07/04 05:25:47;;;;;;;1.85;0.90;;;18.50;99.90;;;;;;5054215;28;20025;-67
2022/07/04 05:28:13;;;;;;;3.28;0.70;;;18.80;99.90;;;;;;5054308;28;20044;-67
2022/07/04 05:30:39;;;;;;;2.45;1.10;;;18.80;99.90;;;;;;5054287;28;20411;-69
2022/07/04 05:33:05;;;;;;;1.90;0.93;;;18.80;99.90;;;;;;5053224;28;20036;-68
2022/07/04 05:35:31;;;;;;;5.70;1.20;;;19.10;99.90;;;;;;5054329;28;20080;-68
2022/07/04 05:37:57;;;;;;;2.22;1.20;;;19.30;99.90;;;;;;5052502;28;20049;-66
2022/07/04 05:40:23;;;;;;;2.47;1.17;;;19.10;99.90;;;;;;5053986;28;20124;-69
2022/07/04 05:42:49;;;;;;;6.18;1.00;;;19.00;99.90;;;;;;5054108;28;20075;-67
2022/07/04 05:45:15;;;;;;;3.42;1.10;;;18.90;99.90;;;;;;5054134;28;20076;-66
2022/07/04 05:47:41;;;;;;;2.50;1.20;;;18.90;99.90;;;;;;5054195;28;20035;-68
2022/07/04 05:50:07;;;;;;;4.32;1.08;;;18.90;99.90;;;;;;5054012;28;20044;-69
2022/07/04 05:52:33;;;;;;;3.53;1.27;;;19.00;99.90;;;;;;5053843;28;20036;-68
2022/07/04 05:54:58;;;;;;;4.55;0.95;;;19.00;99.90;;;;;;5053932;28;20560;-66
2022/07/04 05:57:24;;;;;;;2.53;1.00;;;19.00;99.90;;;;;;5053980;28;20516;-67
2022/07/04 05:59:50;;;;;;;4.63;1.08;;;19.10;99.90;;;;;;5053712;28;20097;-66
2022/07/04 06:02:16;;;;;;;3.97;1.00;;;18.90;99.90;;;;;;5053860;28;20120;-68
2022/07/04 06:04:43;;;;;;;1.80;0.80;;;18.90;99.90;;;;;;5053639;28;20037;-68
2022/07/04 06:07:09;;;;;;;2.58;0.98;;;18.80;99.90;;;;;;5053732;28;20044;-67
2022/07/04 06:09:35;;;;;;;1.70;1.00;;;19.00;99.90;;;;;;5053805;28;20052;-67
2022/07/04 06:12:01;;;;;;;2.83;1.05;;;19.20;99.90;;;;;;5053822;28;20037;-67
2022/07/04 06:14:28;;;;;;;1.40;0.90;;;19.50;99.90;;;;;;5053821;28;20507;-66
2022/07/04 06:16:54;;;;;;;0.95;0.70;;;19.60;99.90;;;;;;5053842;28;20033;-67
2022/07/04 06:19:19;;;;;;;6.15;1.10;;;19.60;99.90;;;;;;5053649;28;20045;-67
2022/07/04 06:21:45;;;;;;;4.80;1.00;;;19.40;99.90;;;;;;5053715;28;20037;-66
2022/07/04 06:24:11;;;;;;;1.95;0.88;;;19.40;99.90;;;;;;5053542;28;20037;-68
2022/07/04 06:26:36;;;;;;;4.32;1.10;;;19.50;99.90;;;;;;5053561;28;20082;-68
2022/07/04 06:29:02;;;;;;;1.45;0.80;;;19.70;99.90;;;;;;5053713;28;20044;-67
2022/07/04 06:31:28;;;;;;;2.55;1.15;;;19.80;99.90;;;;;;5057442;28;20395;-66
2022/07/04 06:36:38;;;;;;;3.03;0.95;;;19.70;99.90;;;;;;5056803;28;20104;-66
2022/07/04 06:39:04;;;;;;;2.88;0.75;;;19.90;99.90;;;;;;5056918;28;20482;-67
2022/07/04 06:41:30;;;;;;;6.65;0.93;;;19.70;99.90;;;;;;5056640;28;20372;-67
2022/07/04 06:43:55;;;;;;;2.78;0.88;;;19.80;99.90;;;;;;5057523;28;20044;-67
2022/07/04 06:46:21;;;;;;;2.47;0.98;;;19.70;99.90;;;;;;5057642;28;20112;-69
2022/07/04 06:48:47;;;;;;;2.90;1.05;;;20.00;99.90;;;;;;5057230;28;20452;-68
2022/07/04 06:51:13;;;;;;;1.58;0.88;;;20.60;99.90;;;;;;5057286;28;20507;-68
2022/07/04 06:53:41;;;;;;;6.97;1.20;;;20.80;99.90;;;;;;5057133;28;20068;-67
2022/07/04 06:56:07;;;;;;;3.78;0.90;;;20.50;99.90;;;;;;5057098;28;20511;-68
2022/07/04 06:58:33;;;;;;;1.95;0.77;;;20.40;99.90;;;;;;5057082;28;20095;-68
2022/07/04 07:00:58;;;;;;;4.25;0.65;;;20.60;99.90;;;;;;5057054;28;20114;-67
2022/07/04 07:03:24;;;;;;;7.88;0.93;;;20.70;99.90;;;;;;5056880;28;20099;-68
2022/07/04 07:05:50;;;;;;;15.07;2.13;;;20.80;99.90;;;;;;5057118;28;20029;-67
2022/07/04 07:08:16;;;;;;;6.55;1.23;;;20.50;99.90;;;;;;5056862;28;20388;-68
2022/07/04 07:10:41;;;;;;;2.83;0.88;;;20.40;99.90;;;;;;5056875;28;20041;-66
2022/07/04 07:13:08;;;;;;;2.33;0.90;;;20.80;99.90;;;;;;5056904;28;20045;-67
2022/07/04 07:15:35;;;;;;;4.10;0.88;;;21.30;99.90;;;;;;5056801;28;20037;-67
2022/07/04 07:18:04;;;;;;;1.17;0.68;;;21.90;99.90;;;;;;5056608;28;20075;-67
2022/07/04 07:20:30;;;;;;;8.05;1.13;;;22.20;99.90;;;;;;5056761;28;20064;-69
2022/07/04 07:22:56;;;;;;;3.90;1.10;;;22.20;99.90;;;;;;5056694;28;20086;-67
2022/07/04 07:25:21;;;;;;;3.90;1.13;;;21.80;99.90;;;;;;5056518;28;20400;-66
2022/07/04 07:27:47;;;;;;;2.60;0.90;;;21.30;99.90;;;;;;5056427;28;20051;-67
2022/07/04 07:30:13;;;;;;;3.00;0.95;;;21.90;99.90;;;;;;5056049;28;20075;-66
2022/07/04 07:32:39;;;;;;;3.25;0.90;;;22.00;99.90;;;;;;5056369;28;20504;-66
2022/07/04 07:35:05;;;;;;;1.52;0.85;;;21.70;99.90;;;;;;5056395;28;20033;-66
2022/07/04 07:37:31;;;;;;;3.65;1.02;;;21.10;99.90;;;;;;5056261;28;20041;-69
2022/07/04 07:39:57;;;;;;;2.05;1.00;;;21.10;99.90;;;;;;5056115;28;20569;-68
2022/07/04 07:42:25;;;;;;;1.70;0.85;;;21.10;99.90;;;;;;5055394;28;20067;-69
2022/07/04 07:44:51;;;;;;;2.28;0.90;;;21.30;99.90;;;;;;5056255;28;20041;-67
2022/07/04 07:47:16;;;;;;;4.55;1.05;;;20.70;99.90;;;;;;5056227;28;20040;-69
2022/07/04 07:49:43;;;;;;;5.05;0.90;;;20.50;99.90;;;;;;5056287;28;20056;-69
2022/07/04 07:52:08;;;;;;;8.07;1.30;;;20.70;99.90;;;;;;5056259;28;20049;-67
2022/07/04 07:54:35;;;;;;;1.80;1.00;;;21.20;99.90;;;;;;5056092;28;20518;-68
2022/07/04 07:57:00;;;;;;;2.25;1.00;;;21.50;99.90;;;;;;5056106;28;20040;-66
2022/07/04 07:59:26;;;;;;;2.88;1.25;;;22.50;99.90;;;;;;5055694;28;20463;-67
2022/07/04 08:01:52;;;;;;;1.73;0.82;;;22.70;99.90;;;;;;5055805;28;20098;-67
2022/07/04 08:04:37;;;;;;;1.20;0.88;;;23.10;99.90;;;;;;5056019;28;20041;-67
2022/07/04 08:07:08;;;;;;;4.22;1.02;;;23.50;99.90;;;;;;5065707;28;20055;-67
2022/07/04 08:09:35;;;;;;;2.40;0.85;;;23.90;99.90;;;;;;5075578;28;20137;-67
2022/07/04 08:12:03;;;;;;;5.53;1.00;;;23.60;99.90;;;;;;5075424;28;20072;-67
2022/07/04 08:14:29;;;;;;;5.65;0.90;;;23.90;99.90;;;;;;5063819;28;20109;-67
2022/07/04 08:16:56;;;;;;;2.22;0.90;;;24.10;99.90;;;;;;5055537;28;20048;-68
2022/07/04 08:19:22;;;;;;;3.42;0.90;;;24.30;99.90;;;;;;5055557;28;20045;-69
2022/07/04 08:21:47;;;;;;;2.83;0.90;;;23.60;99.90;;;;;;5055623;28;20025;-69
2022/07/04 08:24:16;;;;;;;4.65;1.10;;;24.10;99.90;;;;;;5055461;28;20123;-67
2022/07/04 08:26:43;;;;;;;4.25;0.90;;;24.10;99.90;;;;;;5055379;28;20124;-67
2022/07/04 08:29:09;;;;;;;2.25;0.98;;;23.30;99.90;;;;;;5055427;28;20044;-67
2022/07/04 08:31:35;;;;;;;1.60;0.90;;;23.50;99.90;;;;;;5055217;28;20044;-67
2022/07/04 08:34:00;;;;;;;3.05;1.10;;;23.60;99.90;;;;;;5055432;28;20036;-66
2022/07/04 08:36:26;;;;;;;3.42;1.33;;;23.70;99.90;;;;;;5055309;28;20048;-68
2022/07/04 08:38:52;;;;;;;7.45;1.13;;;23.60;99.90;;;;;;5055124;28;20465;-66
2022/07/04 08:41:19;;;;;;;2.28;1.15;;;23.60;99.90;;;;;;5055178;28;20120;-66
2022/07/04 08:43:47;;;;;;;5.25;1.25;;;23.50;99.90;;;;;;5055125;28;20044;-67
2022/07/04 08:46:16;;;;;;;2.88;1.00;;;23.40;99.90;;;;;;5055110;28;20166;-66
2022/07/04 08:48:43;;;;;;;1.55;0.82;;;23.70;99.90;;;;;;5055080;28;20400;-67
2022/07/04 08:51:19;;;;;;;3.15;0.80;;;23.50;99.90;;;;;;5055032;28;20044;-68
2022/07/04 08:53:56;;;;;;;1.90;0.85;;;23.30;99.90;;;;;;5054760;28;20036;-68
2022/07/04 08:59:07;;;;;;;1.55;1.00;;;23.30;99.90;;;;;;5054652;28;20539;-67
2022/07/04 09:01:34;;;;;;;1.45;0.75;;;22.70;99.90;;;;;;5054678;28;20135;-67
2022/07/04 09:04:01;;;;;;;1.50;0.98;;;22.90;99.90;;;;;;5054463;28;20040;-68
2022/07/04 09:06:29;;;;;;;1.88;0.82;;;22.90;99.90;;;;;;5054549;28;20032;-69
2022/07/04 09:08:55;;;;;;;3.20;0.88;;;22.90;99.90;;;;;;5054780;28;20024;-67
2022/07/04 09:11:21;;;;;;;3.33;0.88;;;22.80;99.90;;;;;;5054769;28;20420;-69
2022/07/04 09:13:48;;;;;;;3.75;0.88;;;23.00;99.90;;;;;;5054620;28;20045;-66
2022/07/04 09:16:14;;;;;;;4.65;0.90;;;22.80;99.90;;;;;;5054616;28;20551;-69
2022/07/04 09:18:40;;;;;;;2.22;1.00;;;23.00;99.90;;;;;;5054290;28;20080;-66
2022/07/04 09:21:08;;;;;;;1.90;0.85;;;23.10;99.90;;;;;;5054380;28;20064;-67
2022/07/04 09:23:40;;;;;;;16.23;1.38;;;23.10;99.90;;;;;;5054292;28;20120;-66
2022/07/04 09:26:10;;;;;;;3.55;1.20;;;23.10;99.90;;;;;;5054286;28;20040;-66
2022/07/04 09:28:36;;;;;;;2.28;0.98;;;23.20;99.90;;;;;;5054418;28;20464;-66
2022/07/04 09:31:12;;;;;;;3.70;1.15;;;23.30;99.90;;;;;;5054248;28;20041;-66
2022/07/04 09:33:51;;;;;;;5.72;1.10;;;23.30;99.90;;;;;;5054335;28;20041;-67
2022/07/04 09:36:19;;;;;;;3.30;1.10;;;23.10;99.90;;;;;;5054464;28;20032;-66
2022/07/04 09:38:48;;;;;;;1.40;0.80;;;23.40;99.90;;;;;;5054177;28;20115;-69
2022/07/04 09:41:29;;;;;;;1.45;0.68;;;23.40;99.90;;;;;;5054174;28;20053;-68
2022/07/04 09:44:02;;;;;;;7.32;1.05;;;23.30;99.90;;;;;;5054064;28;20048;-69
2022/07/04 09:46:28;;;;;;;2.40;1.08;;;23.30;99.90;;;;;;5054131;28;20040;-66
2022/07/04 09:48:54;;;;;;;3.25;1.27;;;23.00;99.90;;;;;;5053954;28;20041;-67
2022/07/04 09:51:37;;;;;;;2.08;0.77;;;23.00;99.90;;;;;;5054101;28;20086;-67
2022/07/04 09:54:26;;;;;;;4.05;1.00;;;23.10;99.90;;;;;;5053861;28;20049;-69
2022/07/04 09:56:58;;;;;;;4.10;1.08;;;23.40;99.90;;;;;;5054019;28;20041;-66
2022/07/04 09:59:25;;;;;;;2.83;1.13;;;23.30;99.90;;;;;;5053954;28;20451;-65
2022/07/04 10:01:51;;;;;;;5.28;1.75;;;23.90;99.90;;;;;;5054026;28;20037;-68
2022/07/04 10:04:17;;;;;;;3.88;1.17;;;23.90;99.90;;;;;;5055133;28;20044;-66
2022/07/04 10:06:44;;;;;;;6.93;1.20;;;23.60;99.90;;;;;;5060425;28;20037;-66
2022/07/04 10:09:16;;;;;;;3.05;0.80;;;23.70;99.90;;;;;;5060530;28;20094;-66
2022/07/04 10:11:44;;;;;;;1.33;0.90;;;23.60;99.90;;;;;;5060601;28;20431;-67
2022/07/04 10:14:12;;;;;;;3.95;1.10;;;24.10;99.90;;;;;;5060541;28;20086;-67
2022/07/04 10:16:39;;;;;;;4.82;1.00;;;24.10;99.90;;;;;;5060582;28;20400;-69
2022/07/04 10:19:07;;;;;;;4.03;1.05;;;24.10;99.90;;;;;;5058945;28;20412;-66
2022/07/04 10:21:33;;;;;;;2.58;1.05;;;23.90;99.90;;;;;;5060318;28;20075;-66
2022/07/04 10:24:02;;;;;;;5.13;1.27;;;23.70;99.90;;;;;;5060387;28;20041;-66
2022/07/04 10:26:29;;;;;;;4.82;0.98;;;23.90;99.90;;;;;;5060563;28;20455;-67
2022/07/04 10:28:56;;;;;;;4.78;1.50;;;23.80;99.90;;;;;;5060434;28;20040;-66
2022/07/04 10:31:23;;;;;;;8.35;1.50;;;23.60;99.90;;;;;;5060132;28;20136;-68
2022/07/04 10:33:50;;;;;;;3.22;1.60;;;24.00;99.90;;;;;;5060488;28;20056;-66
2022/07/04 10:36:20;;;;;;;5.38;1.58;;;23.80;99.90;;;;;;5060168;28;20032;-68
2022/07/04 10:38:54;;;;;;;5.38;1.52;;;23.80;99.90;;;;;;5060126;28;20048;-66
2022/07/04 10:41:22;;;;;;;7.45;1.20;;;23.80;99.90;;;;;;5060391;28;20384;-66
2022/07/04 10:43:50;;;;;;;6.68;1.40;;;;;;;;;;5060253;28;20388;-66
2022/07/04 10:46:15;;;;;;;3.45;1.40;;;23.80;99.90;;;;;;5059996;28;20078;-66
2022/07/04 10:48:55;;;;;;;3.33;1.13;;;23.90;99.90;;;;;;5060205;28;20056;-68
2022/07/04 10:51:39;;;;;;;3.38;1.30;;;23.90;99.90;;;;;;5060011;28;20139;-69
2022/07/04 10:54:16;;;;;;;7.78;1.25;;;24.30;99.90;;;;;;5060006;28;20041;-66
2022/07/04 10:56:47;;;;;;;3.58;1.45;;;23.90;99.90;;;;;;5059928;28;20075;-67
2022/07/04 10:59:17;;;;;;;7.80;1.55;;;23.90;99.90;;;;;;5060040;28;20144;-66
2022/07/04 11:01:51;;;;;;;2.73;1.37;;;23.90;99.90;;;;;;5060169;28;20123;-66
2022/07/04 11:04:50;;;;;;;3.40;1.00;;;23.80;99.90;;;;;;5060053;28;20037;-66
2022/07/04 11:07:19;;;;;;;2.70;1.50;;;23.90;99.90;;;;;;5060096;28;20124;-66
2022/07/04 11:09:45;;;;;;;2.00;1.00;;;23.80;99.90;;;;;;5060135;28;20408;-66
2022/07/04 11:12:14;;;;;;;5.25;1.63;;;23.70;99.90;;;;;;5059827;28;20063;-66
2022/07/04 11:14:47;;;;;;;6.72;1.20;;;23.70;99.90;;;;;;5059783;28;20047;-66
2022/07/04 11:17:21;;;;;;;3.58;1.25;;;23.90;99.90;;;;;;5055890;28;20299;-66
2022/07/04 11:19:47;;;;;;;3.13;1.35;;;24.10;99.90;;;;;;5056640;28;20055;-69
2022/07/04 11:22:22;;;;;;;5.97;1.45;;;24.40;99.90;;;;;;5056698;28;20040;-67
2022/07/04 11:24:48;;;;;;;5.13;1.30;;;24.30;99.90;;;;;;5056722;28;20076;-66
2022/07/04 11:27:15;;;;;;;3.72;1.25;;;24.60;99.90;;;;;;5056579;28;20118;-66
2022/07/04 11:29:52;;;;;;;4.65;1.10;;;24.80;99.90;;;;;;5056303;28;20051;-66
2022/07/04 11:32:29;;;;;;;14.13;1.35;;;24.30;99.90;;;;;;5056458;28;20040;-69
2022/07/04 11:34:55;;;;;;;4.95;1.30;;;24.40;99.90;;;;;;5057995;28;20037;-68
2022/07/04 11:37:21;;;;;;;1.50;1.10;;;24.30;99.90;;;;;;5076249;28;20045;-66
2022/07/04 11:39:51;;;;;;;3.50;1.15;;;24.40;99.90;;;;;;5076178;28;20051;-66
2022/07/04 11:45:02;;;;;;;4.53;1.13;;;24.60;99.90;;;;;;5056290;28;20415;-69
2022/07/04 11:47:42;;;;;;;2.65;0.90;;;24.40;99.90;;;;;;5056267;28;20115;-66
2022/07/04 11:50:19;;;;;;;4.55;1.10;;;24.00;99.90;;;;;;5056017;28;20492;-69
2022/07/04 11:52:53;;;;;;;6.00;1.20;;;24.30;99.90;;;;;;5055737;28;20122;-68
2022/07/04 11:55:21;;;;;;;3.67;0.95;;;24.90;99.90;;;;;;5055921;28;20048;-69
2022/07/04 11:57:50;;;;;;;3.15;1.10;;;25.10;99.90;;;;;;5055886;28;20043;-68
2022/07/04 12:00:24;;;;;;;7.85;1.38;;;25.00;99.90;;;;;;5055749;28;20136;-69
2022/07/04 12:02:50;;;;;;;4.53;1.00;;;24.90;99.90;;;;;;5056119;28;20045;-68
2022/07/04 12:05:17;;;;;;;2.83;1.20;;;24.50;99.90;;;;;;5055915;28;20484;-68
2022/07/04 12:07:47;;;;;;;3.83;1.00;;;24.10;99.90;;;;;;5055980;28;20454;-66
2022/07/04 12:10:23;;;;;;;4.63;1.40;;;24.10;99.90;;;;;;5055896;28;20048;-65
2022/07/04 12:12:59;;;;;;;2.97;0.95;;;23.90;99.90;;;;;;5055791;28;20087;-66
2022/07/04 12:15:39;;;;;;;2.28;1.25;;;24.10;99.90;;;;;;5055546;28;20036;-68
2022/07/04 12:18:14;;;;;;;7.45;1.60;;;24.10;99.90;;;;;;5055684;28;20040;-66
2022/07/04 12:20:40;;;;;;;2.85;1.50;;;24.10;99.90;;;;;;5055852;28;20037;-69
2022/07/04 12:23:06;;;;;;;1.55;0.82;;;24.00;99.90;;;;;;5055719;28;20044;-69
2022/07/04 12:25:37;;;;;;;3.03;1.23;;;24.10;99.90;;;;;;5055591;28;20542;-66
2022/07/04 12:28:03;;;;;;;;;;;24.00;99.90;;;;;;5055620;28;20037;-65
2022/07/04 12:30:32;;;;;;;4.50;1.38;;;23.90;99.90;;;;;;5055237;28;19917;-66
2022/07/04 12:33:01;;;;;;;2.45;1.17;;;23.40;99.90;;;;;;5055457;28;20044;-69
2022/07/04 12:35:47;;;;;;;3.40;1.10;;;23.90;99.90;;;;;;5055415;28;20041;-67
2022/07/04 12:38:33;;;;;;;1.35;1.10;;;23.90;99.90;;;;;;5055126;28;20044;-69
2022/07/04 12:40:59;;;;;;;1.55;0.85;;;23.80;99.90;;;;;;5055049;28;20045;-66
2022/07/04 12:43:43;;;;;;;5.68;0.98;;;23.60;99.90;;;;;;5054939;28;20040;-66
2022/07/04 12:46:14;;;;;;;4.28;1.13;;;23.70;99.90;;;;;;5054864;28;20049;-66
2022/07/04 12:48:41;;;;;;;5.43;1.25;;;23.60;99.90;;;;;;5055127;28;20073;-68
2022/07/04 12:51:12;;;;;;;2.92;0.82;;;23.40;99.90;;;;;;5054957;28;20090;-67
2022/07/04 12:53:41;;;;;;;;;;;23.60;99.90;;;;;;5055466;28;20047;-66
2022/07/04 12:56:08;;;;;;;3.72;1.20;;;23.60;99.90;;;;;;5054986;28;19909;-66
2022/07/04 12:58:35;;;;;;;4.85;1.35;;;23.80;99.90;;;;;;5054877;28;20048;-66
2022/07/04 13:01:02;;;;;;;8.07;1.60;;;23.60;99.90;;;;;;5054828;28;20049;-66